createdAt,value
2022-10-18T00:00:06.034Z,51.44
2022-10-18T00:02:32.537Z,51.44
2022-10-18T00:04:58.995Z,51.52
2022-10-18T00:07:25.411Z,51.68
2022-10-18T00:09:51.875Z,51.95
2022-10-18T00:12:18.247Z,51.64
2022-10-18T00:14:44.643Z,51.64
2022-10-18T00:17:11.092Z,51.65
2022-10-18T00:19:37.496Z,51.95
2022-10-18T00:22:03.907Z,51.69
2022-10-18T00:24:30.327Z,51.92
2022-10-18T00:26:56.711Z,51.83
2022-10-18T00:29:23.144Z,51.71
2022-10-18T00:31:49.559Z,51.49
2022-10-18T00:34:16.451Z,51.97
2022-10-18T00:36:43.617Z,51.87
2022-10-18T00:39:14.419Z,52.03
2022-10-18T00:41:40.905Z,51.66
2022-10-18T00:44:27.280Z,52.10
2022-10-18T00:46:58.667Z,51.48
2022-10-18T00:49:25.016Z,51.70
2022-10-18T00:51:58.351Z,51.91
2022-10-18T00:54:25.224Z,51.79
2022-10-18T00:56:51.796Z,51.75
2022-10-18T00:59:18.627Z,52.15
2022-10-18T01:01:45.511Z,51.96
2022-10-18T01:04:13.700Z,51.75
2022-10-18T01:06:49.387Z,52.03
2022-10-18T01:09:24.828Z,51.82
2022-10-18T01:11:58.560Z,52.27
2022-10-18T01:14:33.920Z,51.95
2022-10-18T01:17:19.192Z,52.14
2022-10-18T01:20:04.488Z,51.98
2022-10-18T01:22:33.963Z,52.02
2022-10-18T01:25:00.380Z,51.97
2022-10-18T01:27:33.264Z,51.90
2022-10-18T01:30:18.706Z,51.85
2022-10-18T01:32:48.709Z,52.03
2022-10-18T01:35:28.240Z,51.75
2022-10-18T01:37:56.117Z,51.87
2022-10-18T01:40:23.888Z,51.92
2022-10-18T01:42:50.313Z,51.89
2022-10-18T01:45:17.238Z,51.81
2022-10-18T01:47:44.805Z,51.92
2022-10-18T01:50:11.217Z,52.16
2022-10-18T01:52:47.621Z,52.39
2022-10-18T01:55:14.393Z,52.56
2022-10-18T01:57:42.717Z,52.80
2022-10-18T02:00:11.877Z,52.67
2022-10-18T02:02:38.298Z,52.10
2022-10-18T02:05:13.831Z,52.38
2022-10-18T02:08:00.167Z,52.39
2022-10-18T02:11:00.346Z,52.24
2022-10-18T02:13:29.550Z,52.16
2022-10-18T02:15:59.434Z,51.90
2022-10-18T02:18:29.172Z,52.14
2022-10-18T02:20:56.466Z,51.91
2022-10-18T02:23:24.832Z,51.62
2022-10-18T02:25:52.026Z,51.84
2022-10-18T02:28:18.630Z,51.90
2022-10-18T02:31:05.287Z,52.00
2022-10-18T02:33:39.770Z,51.74
2022-10-18T02:36:22.240Z,52.04
2022-10-18T02:38:53.362Z,52.29
2022-10-18T02:41:26.378Z,52.32
2022-10-18T02:43:52.909Z,52.65
2022-10-18T02:46:19.807Z,52.63
2022-10-18T02:48:48.927Z,52.75
2022-10-18T02:51:15.780Z,52.76
2022-10-18T02:53:42.503Z,52.62
2022-10-18T02:56:09.150Z,52.70
2022-10-18T02:58:35.531Z,52.57
2022-10-18T03:01:02.007Z,52.73
2022-10-18T03:03:28.401Z,52.71
2022-10-18T03:05:54.760Z,52.75
2022-10-18T03:08:22.784Z,52.58
2022-10-18T03:10:49.247Z,52.70
2022-10-18T03:13:15.672Z,53.04
2022-10-18T03:15:42.404Z,52.41
2022-10-18T03:18:08.935Z,52.42
2022-10-18T03:20:35.507Z,52.19
2022-10-18T03:23:01.932Z,52.52
2022-10-18T03:25:28.331Z,52.21
2022-10-18T03:27:54.688Z,52.83
2022-10-18T03:30:21.115Z,52.59
2022-10-18T03:32:47.475Z,52.27
2022-10-18T03:35:13.911Z,52.73
2022-10-18T03:37:40.336Z,52.79
2022-10-18T03:40:07.156Z,52.65
2022-10-18T03:42:33.782Z,52.59
2022-10-18T03:45:00.484Z,52.90
2022-10-18T03:47:26.877Z,52.56
2022-10-18T03:49:56.294Z,52.96
2022-10-18T03:52:23.801Z,52.78
2022-10-18T03:54:50.164Z,52.98
2022-10-18T03:57:16.768Z,52.98
2022-10-18T03:59:43.509Z,53.10
2022-10-18T04:02:09.920Z,53.27
2022-10-18T04:04:36.328Z,52.97
2022-10-18T04:07:02.784Z,52.53
2022-10-18T04:09:29.192Z,52.48
2022-10-18T04:11:55.576Z,52.56
2022-10-18T04:14:22.147Z,52.82
2022-10-18T04:16:48.734Z,52.61
2022-10-18T04:19:15.197Z,52.93
2022-10-18T04:21:41.581Z,52.78
2022-10-18T04:24:07.994Z,52.78
2022-10-18T04:26:34.405Z,52.91
2022-10-18T04:29:00.865Z,52.91
2022-10-18T04:31:29.709Z,52.59
2022-10-18T04:33:56.078Z,52.90
2022-10-18T04:36:22.481Z,52.87
2022-10-18T04:38:48.834Z,52.89
2022-10-18T04:41:15.195Z,52.86
2022-10-18T04:43:41.679Z,53.01
2022-10-18T04:46:08.177Z,52.85
2022-10-18T04:48:34.534Z,52.71
2022-10-18T04:51:01.018Z,52.79
2022-10-18T04:53:27.413Z,52.56
2022-10-18T04:58:29.494Z,52.52
2022-10-18T05:00:56.007Z,52.24
2022-10-18T05:03:22.437Z,52.46
2022-10-18T05:06:04.428Z,52.53
2022-10-18T05:08:35.061Z,52.70
2022-10-18T05:11:02.035Z,52.96
2022-10-18T05:13:28.899Z,52.86
2022-10-18T05:15:55.634Z,52.73
2022-10-18T05:18:22.058Z,52.03
2022-10-18T05:20:48.487Z,52.13
2022-10-18T05:23:14.906Z,51.73
2022-10-18T05:25:41.992Z,51.83
2022-10-18T05:28:15.585Z,51.79
2022-10-18T05:30:47.637Z,51.56
2022-10-18T05:33:14.066Z,51.59
2022-10-18T05:35:40.451Z,51.71
2022-10-18T05:38:07.030Z,51.85
2022-10-18T05:40:34.059Z,51.81
2022-10-18T05:43:00.506Z,51.95
2022-10-18T05:45:26.924Z,51.71
2022-10-18T05:47:54.231Z,51.74
2022-10-18T05:50:20.699Z,51.98
2022-10-18T05:52:47.171Z,52.07
2022-10-18T05:55:13.651Z,51.97
2022-10-18T05:57:43.011Z,51.99
2022-10-18T06:00:09.856Z,52.39
2022-10-18T06:02:36.465Z,52.38
2022-10-18T06:05:03.032Z,52.58
2022-10-18T06:07:29.681Z,52.33
2022-10-18T06:09:56.308Z,52.32
2022-10-18T06:12:22.744Z,52.38
2022-10-18T06:14:49.559Z,52.57
2022-10-18T06:17:16.007Z,52.45
2022-10-18T06:19:45.079Z,52.68
2022-10-18T06:22:12.364Z,52.54
2022-10-18T06:24:39.080Z,52.62
2022-10-18T06:27:09.548Z,52.87
2022-10-18T06:29:36.755Z,52.82
2022-10-18T06:32:06.150Z,53.02
2022-10-18T06:34:34.553Z,52.65
2022-10-18T06:37:01.135Z,53.06
2022-10-18T06:39:27.624Z,53.07
2022-10-18T06:41:57.093Z,52.91
2022-10-18T06:44:23.643Z,53.10
2022-10-18T06:46:50.240Z,52.79
2022-10-18T06:49:19.148Z,53.09
2022-10-18T06:51:46.322Z,53.20
2022-10-18T06:54:17.961Z,52.92
2022-10-18T06:56:45.139Z,53.14
2022-10-18T06:59:11.556Z,53.04
2022-10-18T07:01:38.156Z,53.34
2022-10-18T07:04:04.760Z,53.21
2022-10-18T07:06:31.263Z,53.42
2022-10-18T07:08:57.691Z,53.09
2022-10-18T07:11:25.400Z,53.37
2022-10-18T07:13:54.103Z,53.55
2022-10-18T07:16:20.779Z,53.40
2022-10-18T07:18:49.405Z,53.23
2022-10-18T07:21:16.888Z,53.55
2022-10-18T07:23:44.188Z,53.23
2022-10-18T07:26:14.848Z,53.36
2022-10-18T07:28:41.538Z,53.22
2022-10-18T07:31:08.904Z,53.37
2022-10-18T07:33:37.899Z,53.64
2022-10-18T07:36:05.857Z,53.31
2022-10-18T07:38:32.638Z,53.41
2022-10-18T07:41:00.067Z,53.43
2022-10-18T07:43:26.681Z,53.63
2022-10-18T07:45:57.445Z,53.50
2022-10-18T07:48:24.157Z,53.52
2022-10-18T07:50:50.521Z,53.83
2022-10-18T07:53:16.962Z,53.85
2022-10-18T07:55:44.754Z,53.83
2022-10-18T07:58:11.683Z,53.85
2022-10-18T08:00:38.820Z,54.22
2022-10-18T08:03:05.385Z,53.84
2022-10-18T08:07:59.865Z,53.96
2022-10-18T08:10:27.492Z,53.87
2022-10-18T08:12:54.024Z,53.84
2022-10-18T08:15:23.973Z,54.17
2022-10-18T08:17:50.662Z,53.87
2022-10-18T08:20:29.954Z,54.20
2022-10-18T08:23:00.069Z,54.16
2022-10-18T08:25:27.032Z,54.13
2022-10-18T08:27:53.650Z,54.28
2022-10-18T08:30:20.126Z,54.12
2022-10-18T08:32:46.590Z,53.98
2022-10-18T08:35:13.090Z,54.03
2022-10-18T08:37:40.325Z,54.22
2022-10-18T08:40:07.050Z,54.49
2022-10-18T08:42:52.866Z,54.12
2022-10-18T08:45:30.526Z,54.11
2022-10-18T08:48:06.595Z,54.48
2022-10-18T08:50:35.586Z,54.28
2022-10-18T08:53:05.013Z,54.19
2022-10-18T08:55:37.461Z,54.43
2022-10-18T08:58:13.190Z,54.47
2022-10-18T09:00:44.342Z,54.07
2022-10-18T09:03:19.846Z,54.11
2022-10-18T09:05:51.839Z,54.54
2022-10-18T09:08:27.139Z,54.51
2022-10-18T09:11:02.951Z,54.28
2022-10-18T09:13:46.654Z,54.40
2022-10-18T09:16:20.646Z,54.20
2022-10-18T09:18:57.416Z,54.02
2022-10-18T09:21:27.063Z,54.03
2022-10-18T09:23:56.175Z,54.22
2022-10-18T09:26:26.259Z,54.08
2022-10-18T09:29:13.784Z,54.12
2022-10-18T09:31:49.066Z,54.05
2022-10-18T09:34:27.671Z,54.43
2022-10-18T09:36:54.468Z,54.35
2022-10-18T09:39:32.163Z,54.18
2022-10-18T09:42:13.291Z,54.24
2022-10-18T09:44:42.023Z,54.40
2022-10-18T09:47:16.868Z,54.05
2022-10-18T09:49:48.460Z,54.46
2022-10-18T09:52:26.788Z,54.23
2022-10-18T09:54:55.525Z,54.47
2022-10-18T09:57:25.646Z,54.57
2022-10-18T09:59:52.098Z,54.63
2022-10-18T10:02:19.648Z,54.29
2022-10-18T10:04:46.148Z,54.20
2022-10-18T10:07:13.892Z,54.25
2022-10-18T10:09:44.259Z,54.11
2022-10-18T10:12:31.164Z,54.04
2022-10-18T10:15:31.257Z,54.24
2022-10-18T10:18:06.937Z,53.89
2022-10-18T10:20:45.029Z,54.52
2022-10-18T10:23:14.642Z,54.16
2022-10-18T10:25:41.187Z,54.51
2022-10-18T10:28:14.920Z,54.08
2022-10-18T10:30:41.377Z,54.08
2022-10-18T10:33:27.758Z,54.41
2022-10-18T10:35:58.586Z,54.11
2022-10-18T10:38:26.743Z,54.33
2022-10-18T10:40:53.322Z,54.02
2022-10-18T10:43:39.956Z,54.05
2022-10-18T10:46:07.029Z,54.17
2022-10-18T10:48:34.782Z,54.32
2022-10-18T10:51:03.272Z,54.67
2022-10-18T10:53:32.527Z,54.21
2022-10-18T10:55:59.583Z,54.04
2022-10-18T10:58:28.067Z,54.52
2022-10-18T11:00:55.983Z,54.40
2022-10-18T11:03:30.984Z,54.25
2022-10-18T11:06:00.533Z,54.05
2022-10-18T11:11:28.645Z,54.07
2022-10-18T11:14:07.287Z,53.98
2022-10-18T11:17:05.626Z,53.91
2022-10-18T11:19:39.178Z,54.00
2022-10-18T11:22:09.595Z,53.99
2022-10-18T11:24:36.115Z,53.91
2022-10-18T11:27:02.468Z,53.92
2022-10-18T11:29:47.696Z,53.89
2022-10-18T11:32:21.188Z,54.20
2022-10-18T11:34:47.557Z,54.32
2022-10-18T11:37:28.513Z,54.46
2022-10-18T11:40:02.033Z,53.95
2022-10-18T11:42:42.048Z,54.27
2022-10-18T11:45:11.306Z,54.34
2022-10-18T11:47:37.712Z,54.09
2022-10-18T11:50:08.062Z,54.09
2022-10-18T11:52:40.492Z,54.51
2022-10-18T11:55:30.374Z,54.73
2022-10-18T11:58:07.914Z,54.17
2022-10-18T12:00:39.696Z,54.57
2022-10-18T12:03:20.152Z,54.64
2022-10-18T12:05:47.992Z,54.92
2022-10-18T12:08:17.292Z,55.68
2022-10-18T12:11:03.883Z,54.90
2022-10-18T12:13:39.086Z,54.95
2022-10-18T12:16:07.043Z,54.91
2022-10-18T12:18:34.032Z,54.78
2022-10-18T12:21:00.984Z,54.20
2022-10-18T12:23:37.433Z,54.69
2022-10-18T12:26:05.857Z,54.01
2022-10-18T12:28:41.538Z,54.33
2022-10-18T12:31:26.820Z,53.56
2022-10-18T12:34:02.025Z,53.25
2022-10-18T12:36:48.513Z,53.08
2022-10-18T12:39:32.274Z,53.13
2022-10-18T12:42:18.250Z,52.73
2022-10-18T12:44:46.469Z,52.63
2022-10-18T12:47:21.741Z,52.82
2022-10-18T12:49:55.381Z,51.89
2022-10-18T12:52:26.113Z,52.24
2022-10-18T12:55:01.821Z,51.94
2022-10-18T12:57:47.234Z,51.80
2022-10-18T13:00:32.225Z,50.93
2022-10-18T13:03:13.751Z,51.42
2022-10-18T13:05:53.807Z,51.19
2022-10-18T13:08:26.695Z,50.81
2022-10-18T13:11:01.979Z,51.31
2022-10-18T13:13:45.243Z,50.77
2022-10-18T13:16:20.735Z,51.28
2022-10-18T13:18:58.526Z,51.00
2022-10-18T13:21:25.059Z,50.97
2022-10-18T13:24:03.699Z,50.81
2022-10-18T13:26:38.696Z,50.81
2022-10-18T13:29:25.042Z,50.75
2022-10-18T13:32:11.708Z,50.93
2022-10-18T13:34:39.166Z,50.82
2022-10-18T13:37:11.486Z,50.34
2022-10-18T13:39:39.270Z,49.45
2022-10-18T13:42:15.019Z,49.50
2022-10-18T13:44:43.514Z,49.34
2022-10-18T13:47:14.403Z,49.50
2022-10-18T13:49:43.578Z,49.26
2022-10-18T13:52:33.412Z,49.18
2022-10-18T13:55:18.319Z,48.69
2022-10-18T13:57:47.570Z,48.35
2022-10-18T14:00:16.663Z,48.33
2022-10-18T14:03:03.219Z,45.98
2022-10-18T14:05:29.825Z,48.10
2022-10-18T14:08:09.603Z,48.14
2022-10-18T14:11:01.781Z,47.96
2022-10-18T14:13:43.238Z,48.06
2022-10-18T14:16:18.734Z,47.80
2022-10-18T14:18:47.420Z,47.86
2022-10-18T14:21:21.864Z,45.89
2022-10-18T14:23:48.786Z,47.15
2022-10-18T14:26:16.157Z,47.97
2022-10-18T14:28:59.157Z,47.82
2022-10-18T14:31:26.830Z,47.95
2022-10-18T14:33:57.690Z,48.06
2022-10-18T14:36:25.936Z,48.09
2022-10-18T14:39:02.802Z,48.36
2022-10-18T14:41:29.138Z,47.78
2022-10-18T14:44:14.029Z,47.93
2022-10-18T14:46:46.678Z,48.22
2022-10-18T14:49:13.867Z,48.03
2022-10-18T14:51:41.335Z,47.64
2022-10-18T14:57:00.715Z,47.27
2022-10-18T14:59:28.114Z,47.54
2022-10-18T15:01:59.783Z,47.37
2022-10-18T15:04:33.391Z,47.49
2022-10-18T15:07:01.311Z,47.32
2022-10-18T15:11:57.777Z,47.17
2022-10-18T15:14:26.519Z,46.68
2022-10-18T15:16:56.199Z,47.00
2022-10-18T15:19:31.178Z,46.40
2022-10-18T15:22:30.789Z,46.27
2022-10-18T15:25:03.177Z,46.35
2022-10-18T15:27:32.007Z,46.34
2022-10-18T15:30:05.846Z,46.21
2022-10-18T15:32:32.508Z,45.82
2022-10-18T15:35:09.822Z,46.29
2022-10-18T15:37:41.679Z,45.95
2022-10-18T15:40:23.022Z,45.63
2022-10-18T15:42:50.269Z,45.63
2022-10-18T15:45:25.564Z,45.81
2022-10-18T15:48:02.403Z,45.68
2022-10-18T15:50:47.753Z,45.99
2022-10-18T15:53:20.235Z,45.49
2022-10-18T15:55:48.336Z,46.06
2022-10-18T15:58:17.928Z,45.93
2022-10-18T16:00:45.027Z,45.99
2022-10-18T16:03:11.691Z,46.09
2022-10-18T16:05:38.475Z,46.08
2022-10-18T16:08:04.932Z,46.08
2022-10-18T16:10:31.323Z,45.88
2022-10-18T16:12:57.749Z,46.21
2022-10-18T16:15:24.283Z,46.10
2022-10-18T16:17:50.878Z,46.30
2022-10-18T16:20:23.690Z,46.10
2022-10-18T17:00:47.230Z,47.18
2022-10-18T17:03:14.229Z,48.36
2022-10-18T17:05:41.268Z,49.01
2022-10-18T17:08:07.989Z,49.11
2022-10-18T17:10:34.496Z,48.93
2022-10-18T17:13:01.041Z,49.13
2022-10-18T17:15:31.485Z,49.15
2022-10-18T17:18:01.354Z,49.19
2022-10-18T17:20:27.813Z,49.21
2022-10-18T17:22:54.333Z,49.08
2022-10-18T17:25:20.881Z,49.13
2022-10-18T17:27:47.601Z,49.18
2022-10-18T17:30:15.171Z,49.56
2022-10-18T17:32:44.698Z,49.31
2022-10-18T17:35:12.289Z,49.41
2022-10-18T17:37:43.982Z,49.82
2022-10-18T17:40:12.477Z,49.58
2022-10-18T17:42:38.968Z,49.61
2022-10-18T17:45:05.773Z,49.62
2022-10-18T17:47:32.653Z,49.63
2022-10-18T17:49:59.268Z,50.00
2022-10-18T17:52:25.767Z,49.90
2022-10-18T17:54:52.321Z,49.54
2022-10-18T17:57:18.924Z,49.52
2022-10-18T17:59:46.821Z,49.00
2022-10-18T18:02:13.309Z,49.68
2022-10-18T18:04:39.874Z,49.16
2022-10-18T18:07:06.397Z,49.53
2022-10-18T18:09:32.785Z,49.51
2022-10-18T18:11:59.428Z,49.45
2022-10-18T18:14:25.965Z,50.00
2022-10-18T18:16:52.445Z,50.21
2022-10-18T18:19:23.967Z,49.55
2022-10-18T18:21:53.694Z,50.10
2022-10-18T18:24:24.783Z,49.73
2022-10-18T18:26:52.766Z,49.58
2022-10-18T18:29:20.069Z,49.50
2022-10-18T18:31:46.536Z,49.40
2022-10-18T18:34:13.526Z,49.42
2022-10-18T18:36:40.446Z,49.47
2022-10-18T18:39:07.504Z,49.70
2022-10-18T18:41:34.047Z,49.59
2022-10-18T18:44:05.421Z,50.01
2022-10-18T18:46:38.494Z,50.54
2022-10-18T18:49:06.217Z,50.44
2022-10-18T18:51:33.435Z,50.39
2022-10-18T18:54:00.107Z,51.19
2022-10-18T18:56:27.212Z,50.38
2022-10-18T18:58:53.948Z,50.45
2022-10-18T19:01:20.475Z,50.09
2022-10-18T19:03:48.565Z,49.80
2022-10-18T19:06:19.644Z,49.62
2022-10-18T19:08:46.949Z,49.58
2022-10-18T19:11:15.055Z,49.57
2022-10-18T19:13:41.573Z,49.75
2022-10-18T19:16:19.061Z,49.80
2022-10-18T19:18:54.809Z,49.96
2022-10-18T19:21:22.057Z,50.03
2022-10-18T19:23:48.503Z,50.37
2022-10-18T19:26:23.830Z,50.76
2022-10-18T19:28:50.350Z,50.67
2022-10-18T19:31:16.777Z,51.17
2022-10-18T19:33:48.572Z,51.13
2022-10-18T19:36:25.205Z,51.39
2022-10-18T19:38:51.719Z,51.14
2022-10-18T19:41:18.199Z,50.88
2022-10-18T19:43:44.735Z,50.38
2022-10-18T19:46:11.580Z,49.92
2022-10-18T19:48:38.082Z,50.14
2022-10-18T19:51:06.994Z,49.88
2022-10-18T19:53:35.467Z,50.20
2022-10-18T19:56:03.183Z,50.32
2022-10-18T19:58:29.650Z,50.53
2022-10-18T20:00:57.209Z,50.01
2022-10-18T20:03:24.271Z,50.17
2022-10-18T20:05:55.479Z,50.47
2022-10-18T20:08:22.387Z,50.37
2022-10-18T20:10:49.015Z,50.19
2022-10-18T20:13:15.447Z,50.24
2022-10-18T20:15:41.919Z,50.16
2022-10-18T20:18:08.425Z,49.94
2022-10-18T20:20:36.991Z,50.61
2022-10-18T20:23:03.799Z,50.47
2022-10-18T20:25:30.555Z,50.57
2022-10-18T20:27:57.027Z,50.75
2022-10-18T20:30:23.431Z,51.14
2022-10-18T20:32:51.564Z,51.00
2022-10-18T20:35:19.054Z,51.06
2022-10-18T20:37:45.477Z,50.61
2022-10-18T20:40:12.143Z,51.04
2022-10-18T20:42:38.678Z,50.87
2022-10-18T20:45:07.383Z,51.05
2022-10-18T20:47:34.939Z,51.56
2022-10-18T20:50:01.623Z,51.41
2022-10-18T20:52:28.104Z,51.30
2022-10-18T20:54:54.600Z,51.26
2022-10-18T20:57:20.975Z,51.13
2022-10-18T20:59:48.646Z,50.72
2022-10-18T21:02:15.201Z,50.63
2022-10-18T21:04:42.457Z,50.90
2022-10-18T21:07:09.072Z,50.81
2022-10-18T21:09:35.483Z,51.02
2022-10-18T21:12:01.908Z,50.75
2022-10-18T21:14:28.394Z,50.71
2022-10-18T21:16:54.839Z,50.32
2022-10-18T21:19:22.531Z,50.68
2022-10-18T21:21:50.525Z,50.88
2022-10-18T21:24:17.975Z,50.73
2022-10-18T21:26:45.054Z,50.93
2022-10-18T21:29:12.203Z,50.78
2022-10-18T21:31:40.100Z,50.78
2022-10-18T21:34:08.089Z,50.89
2022-10-18T21:36:36.065Z,51.06
2022-10-18T21:39:03.245Z,50.92
2022-10-18T21:41:30.639Z,51.01
2022-10-18T21:43:57.109Z,50.64
2022-10-18T21:46:24.732Z,50.65
2022-10-18T21:48:51.673Z,51.11
2022-10-18T21:51:19.456Z,50.96
2022-10-18T21:53:47.772Z,50.98
2022-10-18T21:56:15.609Z,50.94
2022-10-18T21:58:42.510Z,50.63
2022-10-18T22:01:10.064Z,51.13
2022-10-18T22:03:36.936Z,51.03
2022-10-18T22:06:07.605Z,50.73
2022-10-18T22:08:34.294Z,50.57
2022-10-18T22:11:01.269Z,50.75
2022-10-18T22:13:28.649Z,50.87
2022-10-18T22:15:55.186Z,51.15
2022-10-18T22:18:21.654Z,51.00
2022-10-18T22:20:54.948Z,50.96
2022-10-18T22:23:21.416Z,51.15
2022-10-18T22:25:48.089Z,51.27
2022-10-18T22:28:14.515Z,51.10
2022-10-18T22:30:41.122Z,51.56
2022-10-18T22:33:07.509Z,51.25
2022-10-18T22:35:33.921Z,51.22
2022-10-18T22:38:00.313Z,51.59
2022-10-18T22:40:26.674Z,51.63
2022-10-18T22:42:53.078Z,51.77
2022-10-18T22:45:19.610Z,51.45
2022-10-18T22:47:46.071Z,51.61
2022-10-18T22:50:12.453Z,51.58
2022-10-18T22:52:38.851Z,51.64
2022-10-18T22:55:05.406Z,51.65
2022-10-18T22:57:31.789Z,51.69
2022-10-18T22:59:58.199Z,51.84
2022-10-18T23:02:24.575Z,51.31
2022-10-18T23:04:50.983Z,51.96
2022-10-18T23:07:17.367Z,51.77
2022-10-18T23:09:43.804Z,51.94
2022-10-18T23:12:10.209Z,51.57
2022-10-18T23:14:36.611Z,51.59
2022-10-18T23:17:03.050Z,52.09
2022-10-18T23:19:29.472Z,51.67
2022-10-18T23:21:55.883Z,51.99
2022-10-18T23:24:22.279Z,52.10
2022-10-18T23:26:48.726Z,52.10
2022-10-18T23:29:15.182Z,51.66
2022-10-18T23:31:41.704Z,51.92
2022-10-18T23:34:08.116Z,51.48
2022-10-18T23:36:34.693Z,51.15
2022-10-18T23:39:01.434Z,51.25
2022-10-18T23:41:27.916Z,51.44
2022-10-18T23:43:54.467Z,51.32
2022-10-18T23:46:21.106Z,51.46
2022-10-18T23:48:47.792Z,51.59
2022-10-18T23:51:14.844Z,50.99
2022-10-18T23:53:41.275Z,50.98
2022-10-18T23:56:12.357Z,51.08
2022-10-18T23:58:39.169Z,51.44
